ENHV/HVG METAR and TAF weather

Enter ICAO airport designator
Station Type Date Time Source
ENHV METAR 2020/04/03 21:50 UTC NOAA

ENHV 032150Z 20010KT CAVOK M06/M10 Q0985


Station Type Date Time Source
ENHV Decoded METAR 2020/04/03 21:50 UTC NOAA

Honningsvag / Valan, Norway (ENHV) 71-01N 025-59E 14M
Apr 03, 2020 - 05:50 PM EDT / 2020.04.03 2150 UTC
Wind: from the SSW (200 degrees) at 12 MPH (10 KT):0
Visibility: greater than 7 mile(s):0
Temperature: 21 F (-6 C)
Windchill: 8 F (-13 C):1
Dew Point: 14 F (-10 C)
Relative Humidity: 73%
Pressure (altimeter): 29.09 in. Hg (0985 hPa)
ob: ENHV 032150Z 20010KT CAVOK M06/M10 Q0985
cycle: 22

Station Type Date Time Source
ENHV TAF UTC NOAA

Error!

Example: see airport list